T/b Polar Slep — 3YCF — position and weather

sailwx.info

Track history (hours):
 
Tides and Currents Weather Stations Pressure Air Temp Water Temp Dewpoint Dewpoint Depression Visibility Wind Speed Wind Dir Waves Ship Positions

T/b Polar Slep

Last reported at 2015-Jul-04 16:33 UTC. Time now 2015-Jul-04 17:01 UTC.
Position N 67°18' E 014°23'.

Length 16 m; draft 2.2 m.

Type: Towing. MMSI: 258354500.

Date/timePositionNaut miles runAvg speedWind from/ knotsBaromVisibWave heightAir tempDewpointWater temp
2015-Jul-04 16:33N 67°18' E 014°23'0 0.0
2015-Jul-04 15:33N 67°18' E 014°23'0 0.0
2015-Jul-04 14:33N 67°18' E 014°23'0 0.0
2015-Jul-04 13:33N 67°18' E 014°23'0 0.0
2015-Jul-04 12:33N 67°18' E 014°23'0 0.0
2015-Jul-04 11:33N 67°18' E 014°23'0 0.0
2015-Jul-04 10:33N 67°18' E 014°23'0 0.0
2015-Jul-04 09:33N 67°18' E 014°23'0 0.0
2015-Jul-04 08:33N 67°18' E 014°23'0 0.0
2015-Jul-04 07:33N 67°18' E 014°23'0 0.0
2015-Jul-04 06:33N 67°18' E 014°23'0 0.0
2015-Jul-04 05:33N 67°18' E 014°23'0 0.0
2015-Jul-04 04:33N 67°18' E 014°23'0 0.0
2015-Jul-04 03:33N 67°18' E 014°23'0 0.0
2015-Jul-04 02:33N 67°18' E 014°23'0 0.0
2015-Jul-04 01:33N 67°18' E 014°23'0 0.0
2015-Jul-04 00:33N 67°18' E 014°23'0 0.0
2015-Jul-03 23:33N 67°18' E 014°23'0 0.0
2015-Jul-03 22:33N 67°18' E 014°23'0 0.0
2015-Jul-03 21:33N 67°18' E 014°23'0 0.0
2015-Jul-03 20:33N 67°18' E 014°23'0 0.0
2015-Jul-03 19:33N 67°18' E 014°23'0 0.0
2015-Jul-03 18:33N 67°18' E 014°23'0 0.0
2015-Jul-03 17:33N 67°18' E 014°23'0 0.0
2015-Jul-03 16:33N 67°18' E 014°23'0 0.0
2015-Jul-03 15:33N 67°18' E 014°23'0 0.0
2015-Jul-03 14:33N 67°18' E 014°23'0 0.0
2015-Jul-03 13:33N 67°18' E 014°23'0 0.0
2015-Jul-03 12:33N 67°18' E 014°23'0 0.0
2015-Jul-03 11:33N 67°18' E 014°23'0 0.0
2015-Jul-03 10:33N 67°18' E 014°23'0 0.0
2015-Jul-03 09:33N 67°18' E 014°23'0 0.0
2015-Jul-03 08:33N 67°18' E 014°23'0 0.0
2015-Jul-03 07:33N 67°18' E 014°23'0 0.0
2015-Jul-03 06:33N 67°18' E 014°23'0 0.0
2015-Jul-03 05:33N 67°18' E 014°23'0 0.0
2015-Jul-03 04:33N 67°18' E 014°23'0 0.0
2015-Jul-03 03:33N 67°18' E 014°23'0 0.0
2015-Jul-03 02:33N 67°18' E 014°23'0 0.0
2015-Jul-03 01:33N 67°18' E 014°23'0 0.0
2015-Jul-03 00:33N 67°18' E 014°23'0 0.0
2015-Jul-02 23:33N 67°18' E 014°23'0 0.0
2015-Jul-02 22:33N 67°18' E 014°23'0 0.0
2015-Jul-02 21:33N 67°18' E 014°23'0 0.0
2015-Jul-02 20:33N 67°18' E 014°23'0 0.0
2015-Jul-02 19:33N 67°18' E 014°23'0 0.0
2015-Jul-02 18:33N 67°18' E 014°23'0 0.0
2015-Jul-02 17:33N 67°18' E 014°23'0 0.0
2015-Jul-02 16:33N 67°18' E 014°23'0 0.0
2015-Jul-02 15:33N 67°18' E 014°23'0 0.0
2015-Jul-02 14:33N 67°18' E 014°23'0 0.0
2015-Jul-02 13:33N 67°18' E 014°23'0 0.0
2015-Jul-02 12:33N 67°18' E 014°23'0 0.0
2015-Jul-02 11:33N 67°18' E 014°23'0 0.0
2015-Jul-02 10:33N 67°18' E 014°23'0 0.0
2015-Jul-02 09:33N 67°18' E 014°23'0 0.0
2015-Jul-02 08:33N 67°18' E 014°23'0 0.0
2015-Jul-02 07:33N 67°18' E 014°23'0 0.0
2015-Jul-02 06:33N 67°18' E 014°23'0 0.0
2015-Jul-02 05:33N 67°18' E 014°23'0 0.0
2015-Jul-02 04:33N 67°18' E 014°23'0 0.0
2015-Jul-02 03:33N 67°18' E 014°23'0 0.0
2015-Jul-02 02:33N 67°18' E 014°23'0 0.0
2015-Jul-02 01:33N 67°18' E 014°23'0 0.0
2015-Jul-02 00:33N 67°18' E 014°23'0 0.0
2015-Jul-01 23:33N 67°18' E 014°23'0 0.0
2015-Jul-01 22:33N 67°18' E 014°23'0 0.0
2015-Jul-01 21:33N 67°18' E 014°23'0 0.0
2015-Jul-01 20:33N 67°18' E 014°23'0 0.0
2015-Jul-01 19:33N 67°18' E 014°23'0 0.0
2015-Jul-01 18:33N 67°18' E 014°23'0 0.0
2015-Jul-01 17:33N 67°18' E 014°23'0 0.0
2015-Jul-01 16:33N 67°18' E 014°23'0 0.0
2015-Jul-01 15:33N 67°18' E 014°23'2 2.2
2015-Jul-01 14:33N 67°16' E 014°19'8 8.1
2015-Jul-01 13:33N 67°10' E 014°05'9 8.2
2015-Jul-01 12:28N 67°03' E 013°52'7 8.1
2015-Jul-01 11:33N 66°59' E 013°36'36 8.1
2015-Jul-01 07:11N 66°27' E 012°59'75 8.2
2015-Jun-30 22:06N 65°16' E 011°57'  
Track history (hours):
 
Tides and Currents Weather Stations Pressure Air Temp Water Temp Dewpoint Dewpoint Depression Visibility Wind Speed Wind Dir Waves Ship Positions

T/b Polar Slep

Last reported at 2015-Jul-04 16:33 UTC. Time now 2015-Jul-04 17:01 UTC.
Position N 67°18' E 014°23'.

Length 16 m; draft 2.2 m.

Type: Towing. MMSI: 258354500.

Date/timePositionNaut miles runAvg speedWind from/ knotsBaromVisibWave heightAir tempDewpointWater temp
2015-Jul-04 16:33N 67°18' E 014°23'0 0.0
2015-Jul-04 15:33N 67°18' E 014°23'0 0.0
2015-Jul-04 14:33N 67°18' E 014°23'0 0.0
2015-Jul-04 13:33N 67°18' E 014°23'0 0.0
2015-Jul-04 12:33N 67°18' E 014°23'0 0.0
2015-Jul-04 11:33N 67°18' E 014°23'0 0.0
2015-Jul-04 10:33N 67°18' E 014°23'0 0.0
2015-Jul-04 09:33N 67°18' E 014°23'0 0.0
2015-Jul-04 08:33N 67°18' E 014°23'0 0.0
2015-Jul-04 07:33N 67°18' E 014°23'0 0.0
2015-Jul-04 06:33N 67°18' E 014°23'0 0.0
2015-Jul-04 05:33N 67°18' E 014°23'0 0.0
2015-Jul-04 04:33N 67°18' E 014°23'0 0.0
2015-Jul-04 03:33N 67°18' E 014°23'0 0.0
2015-Jul-04 02:33N 67°18' E 014°23'0 0.0
2015-Jul-04 01:33N 67°18' E 014°23'0 0.0
2015-Jul-04 00:33N 67°18' E 014°23'0 0.0
2015-Jul-03 23:33N 67°18' E 014°23'0 0.0
2015-Jul-03 22:33N 67°18' E 014°23'0 0.0
2015-Jul-03 21:33N 67°18' E 014°23'0 0.0
2015-Jul-03 20:33N 67°18' E 014°23'0 0.0
2015-Jul-03 19:33N 67°18' E 014°23'0 0.0
2015-Jul-03 18:33N 67°18' E 014°23'0 0.0
2015-Jul-03 17:33N 67°18' E 014°23'0 0.0
2015-Jul-03 16:33N 67°18' E 014°23'0 0.0
2015-Jul-03 15:33N 67°18' E 014°23'0 0.0
2015-Jul-03 14:33N 67°18' E 014°23'0 0.0
2015-Jul-03 13:33N 67°18' E 014°23'0 0.0
2015-Jul-03 12:33N 67°18' E 014°23'0 0.0
2015-Jul-03 11:33N 67°18' E 014°23'0 0.0
2015-Jul-03 10:33N 67°18' E 014°23'0 0.0
2015-Jul-03 09:33N 67°18' E 014°23'0 0.0
2015-Jul-03 08:33N 67°18' E 014°23'0 0.0
2015-Jul-03 07:33N 67°18' E 014°23'0 0.0
2015-Jul-03 06:33N 67°18' E 014°23'0 0.0
2015-Jul-03 05:33N 67°18' E 014°23'0 0.0
2015-Jul-03 04:33N 67°18' E 014°23'0 0.0
2015-Jul-03 03:33N 67°18' E 014°23'0 0.0
2015-Jul-03 02:33N 67°18' E 014°23'0 0.0
2015-Jul-03 01:33N 67°18' E 014°23'0 0.0
2015-Jul-03 00:33N 67°18' E 014°23'0 0.0
2015-Jul-02 23:33N 67°18' E 014°23'0 0.0
2015-Jul-02 22:33N 67°18' E 014°23'0 0.0
2015-Jul-02 21:33N 67°18' E 014°23'0 0.0
2015-Jul-02 20:33N 67°18' E 014°23'0 0.0
2015-Jul-02 19:33N 67°18' E 014°23'0 0.0
2015-Jul-02 18:33N 67°18' E 014°23'0 0.0
2015-Jul-02 17:33N 67°18' E 014°23'0 0.0
2015-Jul-02 16:33N 67°18' E 014°23'0 0.0
2015-Jul-02 15:33N 67°18' E 014°23'0 0.0
2015-Jul-02 14:33N 67°18' E 014°23'0 0.0
2015-Jul-02 13:33N 67°18' E 014°23'0 0.0
2015-Jul-02 12:33N 67°18' E 014°23'0 0.0
2015-Jul-02 11:33N 67°18' E 014°23'0 0.0
2015-Jul-02 10:33N 67°18' E 014°23'0 0.0
2015-Jul-02 09:33N 67°18' E 014°23'0 0.0
2015-Jul-02 08:33N 67°18' E 014°23'0 0.0
2015-Jul-02 07:33N 67°18' E 014°23'0 0.0
2015-Jul-02 06:33N 67°18' E 014°23'0 0.0
2015-Jul-02 05:33N 67°18' E 014°23'0 0.0
2015-Jul-02 04:33N 67°18' E 014°23'0 0.0
2015-Jul-02 03:33N 67°18' E 014°23'0 0.0
2015-Jul-02 02:33N 67°18' E 014°23'0 0.0
2015-Jul-02 01:33N 67°18' E 014°23'0 0.0
2015-Jul-02 00:33N 67°18' E 014°23'0 0.0
2015-Jul-01 23:33N 67°18' E 014°23'0 0.0
2015-Jul-01 22:33N 67°18' E 014°23'0 0.0
2015-Jul-01 21:33N 67°18' E 014°23'0 0.0
2015-Jul-01 20:33N 67°18' E 014°23'0 0.0
2015-Jul-01 19:33N 67°18' E 014°23'0 0.0
2015-Jul-01 18:33N 67°18' E 014°23'0 0.0
2015-Jul-01 17:33N 67°18' E 014°23'0 0.0
2015-Jul-01 16:33N 67°18' E 014°23'0 0.0
2015-Jul-01 15:33N 67°18' E 014°23'2 2.2
2015-Jul-01 14:33N 67°16' E 014°19'8 8.1
2015-Jul-01 13:33N 67°10' E 014°05'9 8.2
2015-Jul-01 12:28N 67°03' E 013°52'7 8.1
2015-Jul-01 11:33N 66°59' E 013°36'36 8.1
2015-Jul-01 07:11N 66°27' E 012°59'75 8.2
2015-Jun-30 22:06N 65°16' E 011°57'  

Dump ship's entire track history